sensor_id;sensor_type;location;lat;lon;timestamp;P1;durP1;ratioP1;P2;durP2;ratioP2
22334;SDS011;11335;43.848;25.958;2023-05-10T00:00:48;23.30;;;17.40;;
22334;SDS011;11335;43.848;25.958;2023-05-10T00:03:34;24.35;;;16.95;;
22334;SDS011;11335;43.848;25.958;2023-05-10T00:06:20;23.02;;;16.35;;
22334;SDS011;11335;43.848;25.958;2023-05-10T00:09:06;22.83;;;15.23;;
22334;SDS011;11335;43.848;25.958;2023-05-10T00:11:51;20.88;;;15.68;;
22334;SDS011;11335;43.848;25.958;2023-05-10T00:14:37;20.90;;;15.75;;
22334;SDS011;11335;43.848;25.958;2023-05-10T00:17:23;20.55;;;14.98;;
22334;SDS011;11335;43.848;25.958;2023-05-10T00:20:09;24.20;;;15.02;;
22334;SDS011;11335;43.848;25.958;2023-05-10T00:22:55;19.40;;;14.30;;
22334;SDS011;11335;43.848;25.958;2023-05-10T00:25:41;19.83;;;13.45;;
22334;SDS011;11335;43.848;25.958;2023-05-10T00:28:27;22.38;;;13.82;;
22334;SDS011;11335;43.848;25.958;2023-05-10T00:31:14;20.98;;;14.73;;
22334;SDS011;11335;43.848;25.958;2023-05-10T00:33:59;20.40;;;15.38;;
22334;SDS011;11335;43.848;25.958;2023-05-10T00:36:45;17.92;;;13.73;;
22334;SDS011;11335;43.848;25.958;2023-05-10T00:39:31;19.75;;;13.98;;
22334;SDS011;11335;43.848;25.958;2023-05-10T00:42:17;23.33;;;14.32;;
22334;SDS011;11335;43.848;25.958;2023-05-10T00:45:02;25.15;;;14.43;;
22334;SDS011;11335;43.848;25.958;2023-05-10T00:47:48;20.98;;;13.98;;
22334;SDS011;11335;43.848;25.958;2023-05-10T00:50:34;18.88;;;13.93;;
22334;SDS011;11335;43.848;25.958;2023-05-10T00:53:20;24.45;;;14.70;;
22334;SDS011;11335;43.848;25.958;2023-05-10T00:56:06;24.58;;;15.07;;
22334;SDS011;11335;43.848;25.958;2023-05-10T00:58:53;24.30;;;15.63;;
22334;SDS011;11335;43.848;25.958;2023-05-10T01:01:38;26.83;;;16.30;;
22334;SDS011;11335;43.848;25.958;2023-05-10T01:04:24;27.17;;;16.85;;
22334;SDS011;11335;43.848;25.958;2023-05-10T01:07:13;23.02;;;15.55;;
22334;SDS011;11335;43.848;25.958;2023-05-10T01:09:59;22.25;;;15.45;;
22334;SDS011;11335;43.848;25.958;2023-05-10T01:12:46;21.92;;;14.82;;
22334;SDS011;11335;43.848;25.958;2023-05-10T01:15:32;22.10;;;14.13;;
22334;SDS011;11335;43.848;25.958;2023-05-10T01:18:19;21.25;;;15.00;;
22334;SDS011;11335;43.848;25.958;2023-05-10T01:24:29;20.55;;;15.52;;
22334;SDS011;11335;43.848;25.958;2023-05-10T01:28:07;21.50;;;14.57;;
22334;SDS011;11335;43.848;25.958;2023-05-10T01:30:47;19.42;;;13.43;;
22334;SDS011;11335;43.848;25.958;2023-05-10T01:36:58;21.85;;;13.88;;
22334;SDS011;11335;43.848;25.958;2023-05-10T01:40:02;18.83;;;13.80;;
22334;SDS011;11335;43.848;25.958;2023-05-10T01:43:02;21.98;;;14.27;;
22334;SDS011;11335;43.848;25.958;2023-05-10T01:46:01;23.10;;;14.52;;
22334;SDS011;11335;43.848;25.958;2023-05-10T01:48:55;21.30;;;14.77;;
22334;SDS011;11335;43.848;25.958;2023-05-10T01:51:48;21.58;;;13.55;;
22334;SDS011;11335;43.848;25.958;2023-05-10T01:54:38;20.38;;;14.93;;
22334;SDS011;11335;43.848;25.958;2023-05-10T01:57:33;19.58;;;13.57;;
22334;SDS011;11335;43.848;25.958;2023-05-10T02:00:21;20.13;;;14.23;;
22334;SDS011;11335;43.848;25.958;2023-05-10T02:03:08;20.80;;;14.63;;
22334;SDS011;11335;43.848;25.958;2023-05-10T02:05:56;20.40;;;14.23;;
22334;SDS011;11335;43.848;25.958;2023-05-10T02:08:43;22.65;;;14.70;;
22334;SDS011;11335;43.848;25.958;2023-05-10T02:11:31;21.33;;;15.00;;
22334;SDS011;11335;43.848;25.958;2023-05-10T02:14:18;22.77;;;14.07;;
22334;SDS011;11335;43.848;25.958;2023-05-10T02:17:05;18.90;;;14.10;;
22334;SDS011;11335;43.848;25.958;2023-05-10T02:19:53;20.20;;;14.40;;
22334;SDS011;11335;43.848;25.958;2023-05-10T02:22:41;21.42;;;14.65;;
22334;SDS011;11335;43.848;25.958;2023-05-10T02:25:28;22.23;;;14.52;;
22334;SDS011;11335;43.848;25.958;2023-05-10T02:28:16;20.98;;;14.20;;
22334;SDS011;11335;43.848;25.958;2023-05-10T02:31:03;20.00;;;14.07;;
22334;SDS011;11335;43.848;25.958;2023-05-10T02:33:51;20.08;;;14.73;;
22334;SDS011;11335;43.848;25.958;2023-05-10T02:36:38;20.55;;;14.45;;
22334;SDS011;11335;43.848;25.958;2023-05-10T02:39:25;24.08;;;14.93;;
22334;SDS011;11335;43.848;25.958;2023-05-10T02:42:16;26.35;;;17.23;;
22334;SDS011;11335;43.848;25.958;2023-05-10T02:45:05;24.77;;;15.70;;
22334;SDS011;11335;43.848;25.958;2023-05-10T02:47:56;23.23;;;15.10;;
22334;SDS011;11335;43.848;25.958;2023-05-10T02:50:45;25.17;;;14.98;;
22334;SDS011;11335;43.848;25.958;2023-05-10T02:53:36;26.48;;;16.35;;
22334;SDS011;11335;43.848;25.958;2023-05-10T02:56:30;24.67;;;16.00;;
22334;SDS011;11335;43.848;25.958;2023-05-10T02:59:18;24.88;;;16.33;;
22334;SDS011;11335;43.848;25.958;2023-05-10T03:02:04;25.05;;;16.15;;
22334;SDS011;11335;43.848;25.958;2023-05-10T03:04:50;28.23;;;15.85;;
22334;SDS011;11335;43.848;25.958;2023-05-10T03:07:36;23.65;;;15.02;;
22334;SDS011;11335;43.848;25.958;2023-05-10T03:10:24;19.35;;;13.30;;
22334;SDS011;11335;43.848;25.958;2023-05-10T03:16:27;22.42;;;14.15;;
22334;SDS011;11335;43.848;25.958;2023-05-10T03:19:24;20.42;;;14.18;;
22334;SDS011;11335;43.848;25.958;2023-05-10T03:22:16;19.23;;;13.65;;
22334;SDS011;11335;43.848;25.958;2023-05-10T03:25:08;20.20;;;13.68;;
22334;SDS011;11335;43.848;25.958;2023-05-10T03:27:56;21.25;;;13.55;;
22334;SDS011;11335;43.848;25.958;2023-05-10T03:30:43;18.05;;;13.23;;
22334;SDS011;11335;43.848;25.958;2023-05-10T03:33:30;19.58;;;14.02;;
22334;SDS011;11335;43.848;25.958;2023-05-10T03:36:16;20.60;;;13.73;;
22334;SDS011;11335;43.848;25.958;2023-05-10T03:39:02;19.23;;;13.45;;
22334;SDS011;11335;43.848;25.958;2023-05-10T03:41:48;20.55;;;13.90;;
22334;SDS011;11335;43.848;25.958;2023-05-10T03:44:33;21.15;;;14.02;;
22334;SDS011;11335;43.848;25.958;2023-05-10T03:47:19;22.80;;;14.77;;
22334;SDS011;11335;43.848;25.958;2023-05-10T03:50:05;21.75;;;15.18;;
22334;SDS011;11335;43.848;25.958;2023-05-10T03:52:51;21.77;;;15.02;;
22334;SDS011;11335;43.848;25.958;2023-05-10T03:55:37;22.75;;;14.05;;
22334;SDS011;11335;43.848;25.958;2023-05-10T03:58:23;24.45;;;14.18;;
22334;SDS011;11335;43.848;25.958;2023-05-10T04:01:09;22.13;;;15.02;;
22334;SDS011;11335;43.848;25.958;2023-05-10T04:03:55;19.45;;;14.18;;
22334;SDS011;11335;43.848;25.958;2023-05-10T04:06:40;22.98;;;14.70;;
22334;SDS011;11335;43.848;25.958;2023-05-10T04:09:26;25.40;;;14.82;;
22334;SDS011;11335;43.848;25.958;2023-05-10T04:12:12;21.50;;;14.57;;
22334;SDS011;11335;43.848;25.958;2023-05-10T04:14:58;25.63;;;15.25;;
22334;SDS011;11335;43.848;25.958;2023-05-10T04:17:43;24.90;;;15.32;;
22334;SDS011;11335;43.848;25.958;2023-05-10T04:20:29;24.08;;;15.10;;
22334;SDS011;11335;43.848;25.958;2023-05-10T04:23:17;19.77;;;13.48;;
22334;SDS011;11335;43.848;25.958;2023-05-10T04:26:03;21.48;;;14.52;;
22334;SDS011;11335;43.848;25.958;2023-05-10T04:28:49;22.95;;;14.65;;
22334;SDS011;11335;43.848;25.958;2023-05-10T04:31:35;23.15;;;14.57;;
22334;SDS011;11335;43.848;25.958;2023-05-10T04:34:21;26.75;;;15.18;;
22334;SDS011;11335;43.848;25.958;2023-05-10T04:37:07;22.52;;;13.73;;
22334;SDS011;11335;43.848;25.958;2023-05-10T04:39:53;23.63;;;14.32;;
22334;SDS011;11335;43.848;25.958;2023-05-10T04:42:39;22.17;;;15.32;;
22334;SDS011;11335;43.848;25.958;2023-05-10T04:45:26;23.98;;;15.77;;
22334;SDS011;11335;43.848;25.958;2023-05-10T04:48:12;22.38;;;15.43;;
22334;SDS011;11335;43.848;25.958;2023-05-10T04:50:58;20.63;;;14.55;;
22334;SDS011;11335;43.848;25.958;2023-05-10T04:53:44;23.45;;;14.90;;
22334;SDS011;11335;43.848;25.958;2023-05-10T04:56:29;24.67;;;15.43;;
22334;SDS011;11335;43.848;25.958;2023-05-10T04:59:15;23.10;;;15.25;;
22334;SDS011;11335;43.848;25.958;2023-05-10T05:02:01;27.63;;;15.68;;
22334;SDS011;11335;43.848;25.958;2023-05-10T05:04:47;23.20;;;14.73;;
22334;SDS011;11335;43.848;25.958;2023-05-10T05:07:33;27.98;;;18.45;;
22334;SDS011;11335;43.848;25.958;2023-05-10T05:10:18;31.48;;;18.88;;
22334;SDS011;11335;43.848;25.958;2023-05-10T05:13:04;30.70;;;20.10;;
22334;SDS011;11335;43.848;25.958;2023-05-10T05:15:50;38.38;;;20.40;;
22334;SDS011;11335;43.848;25.958;2023-05-10T05:18:36;31.70;;;20.27;;
22334;SDS011;11335;43.848;25.958;2023-05-10T05:21:22;36.50;;;21.92;;
22334;SDS011;11335;43.848;25.958;2023-05-10T05:24:09;34.95;;;21.52;;
22334;SDS011;11335;43.848;25.958;2023-05-10T05:26:55;39.85;;;21.27;;
22334;SDS011;11335;43.848;25.958;2023-05-10T05:29:41;39.17;;;21.33;;
22334;SDS011;11335;43.848;25.958;2023-05-10T05:32:27;34.92;;;19.90;;
22334;SDS011;11335;43.848;25.958;2023-05-10T05:35:12;27.45;;;18.83;;
22334;SDS011;11335;43.848;25.958;2023-05-10T05:37:58;34.67;;;18.73;;
22334;SDS011;11335;43.848;25.958;2023-05-10T05:40:44;26.90;;;18.25;;
22334;SDS011;11335;43.848;25.958;2023-05-10T05:43:31;29.52;;;19.42;;
22334;SDS011;11335;43.848;25.958;2023-05-10T05:46:16;30.80;;;18.73;;
22334;SDS011;11335;43.848;25.958;2023-05-10T05:49:02;31.00;;;18.67;;
22334;SDS011;11335;43.848;25.958;2023-05-10T05:51:48;33.60;;;19.45;;
22334;SDS011;11335;43.848;25.958;2023-05-10T05:54:37;33.17;;;18.55;;
22334;SDS011;11335;43.848;25.958;2023-05-10T05:57:24;31.02;;;19.13;;
22334;SDS011;11335;43.848;25.958;2023-05-10T06:00:09;30.98;;;19.63;;
22334;SDS011;11335;43.848;25.958;2023-05-10T06:02:56;44.08;;;20.42;;
22334;SDS011;11335;43.848;25.958;2023-05-10T06:05:42;30.80;;;19.05;;
22334;SDS011;11335;43.848;25.958;2023-05-10T06:08:28;30.30;;;19.33;;
22334;SDS011;11335;43.848;25.958;2023-05-10T06:11:13;31.08;;;19.70;;
22334;SDS011;11335;43.848;25.958;2023-05-10T06:13:59;30.55;;;19.35;;
22334;SDS011;11335;43.848;25.958;2023-05-10T06:16:45;31.65;;;20.33;;
22334;SDS011;11335;43.848;25.958;2023-05-10T06:19:31;28.38;;;19.05;;
22334;SDS011;11335;43.848;25.958;2023-05-10T06:22:17;34.95;;;19.20;;
22334;SDS011;11335;43.848;25.958;2023-05-10T06:25:03;27.67;;;18.48;;
22334;SDS011;11335;43.848;25.958;2023-05-10T06:27:49;29.75;;;17.77;;
22334;SDS011;11335;43.848;25.958;2023-05-10T06:30:35;27.05;;;17.75;;
22334;SDS011;11335;43.848;25.958;2023-05-10T06:33:21;27.58;;;17.55;;
22334;SDS011;11335;43.848;25.958;2023-05-10T06:36:07;34.75;;;19.38;;
22334;SDS011;11335;43.848;25.958;2023-05-10T06:38:53;32.05;;;19.65;;
22334;SDS011;11335;43.848;25.958;2023-05-10T06:41:39;34.47;;;18.38;;
22334;SDS011;11335;43.848;25.958;2023-05-10T06:44:25;27.00;;;17.90;;
22334;SDS011;11335;43.848;25.958;2023-05-10T06:47:10;26.70;;;16.00;;
22334;SDS011;11335;43.848;25.958;2023-05-10T06:49:56;36.97;;;17.00;;
22334;SDS011;11335;43.848;25.958;2023-05-10T06:52:42;27.67;;;16.23;;
22334;SDS011;11335;43.848;25.958;2023-05-10T06:55:28;33.38;;;18.00;;
22334;SDS011;11335;43.848;25.958;2023-05-10T06:58:14;29.23;;;17.60;;
22334;SDS011;11335;43.848;25.958;2023-05-10T07:01:03;24.65;;;15.40;;
22334;SDS011;11335;43.848;25.958;2023-05-10T07:03:50;29.73;;;17.00;;
22334;SDS011;11335;43.848;25.958;2023-05-10T07:06:36;25.50;;;15.38;;
22334;SDS011;11335;43.848;25.958;2023-05-10T07:09:22;29.10;;;16.50;;
22334;SDS011;11335;43.848;25.958;2023-05-10T07:12:09;22.85;;;14.98;;
22334;SDS011;11335;43.848;25.958;2023-05-10T07:14:55;29.05;;;14.10;;
22334;SDS011;11335;43.848;25.958;2023-05-10T07:17:41;21.75;;;12.43;;
22334;SDS011;11335;43.848;25.958;2023-05-10T07:20:26;22.48;;;12.55;;
22334;SDS011;11335;43.848;25.958;2023-05-10T07:23:12;20.33;;;12.18;;
22334;SDS011;11335;43.848;25.958;2023-05-10T07:25:58;19.88;;;12.35;;
22334;SDS011;11335;43.848;25.958;2023-05-10T07:28:45;27.17;;;13.18;;
22334;SDS011;11335;43.848;25.958;2023-05-10T07:31:30;23.83;;;11.95;;
22334;SDS011;11335;43.848;25.958;2023-05-10T07:34:16;21.42;;;12.13;;
22334;SDS011;11335;43.848;25.958;2023-05-10T07:37:02;20.55;;;12.30;;
22334;SDS011;11335;43.848;25.958;2023-05-10T07:39:48;24.75;;;12.70;;
22334;SDS011;11335;43.848;25.958;2023-05-10T07:42:33;18.67;;;11.25;;
22334;SDS011;11335;43.848;25.958;2023-05-10T07:45:19;21.92;;;11.57;;
22334;SDS011;11335;43.848;25.958;2023-05-10T07:48:05;17.73;;;9.52;;
22334;SDS011;11335;43.848;25.958;2023-05-10T07:50:51;19.10;;;8.93;;
22334;SDS011;11335;43.848;25.958;2023-05-10T07:53:37;15.23;;;9.20;;
22334;SDS011;11335;43.848;25.958;2023-05-10T07:56:24;12.35;;;8.00;;
22334;SDS011;11335;43.848;25.958;2023-05-10T07:59:16;14.00;;;8.10;;
22334;SDS011;11335;43.848;25.958;2023-05-10T08:02:02;13.55;;;7.78;;
22334;SDS011;11335;43.848;25.958;2023-05-10T08:04:48;17.38;;;7.15;;
22334;SDS011;11335;43.848;25.958;2023-05-10T08:07:34;12.55;;;7.28;;
22334;SDS011;11335;43.848;25.958;2023-05-10T08:10:20;14.13;;;7.35;;
22334;SDS011;11335;43.848;25.958;2023-05-10T08:13:05;20.20;;;7.57;;
22334;SDS011;11335;43.848;25.958;2023-05-10T08:15:51;18.77;;;8.60;;
22334;SDS011;11335;43.848;25.958;2023-05-10T08:18:38;14.85;;;8.52;;
22334;SDS011;11335;43.848;25.958;2023-05-10T08:21:25;12.10;;;8.23;;
22334;SDS011;11335;43.848;25.958;2023-05-10T08:24:11;14.07;;;8.57;;
22334;SDS011;11335;43.848;25.958;2023-05-10T08:26:57;12.75;;;9.15;;
22334;SDS011;11335;43.848;25.958;2023-05-10T08:29:42;11.27;;;7.97;;
22334;SDS011;11335;43.848;25.958;2023-05-10T08:32:28;10.63;;;6.82;;
22334;SDS011;11335;43.848;25.958;2023-05-10T08:35:15;8.57;;;5.43;;
22334;SDS011;11335;43.848;25.958;2023-05-10T08:38:01;7.45;;;4.25;;
22334;SDS011;11335;43.848;25.958;2023-05-10T08:40:47;13.05;;;4.30;;
22334;SDS011;11335;43.848;25.958;2023-05-10T08:43:36;4.78;;;3.42;;
22334;SDS011;11335;43.848;25.958;2023-05-10T08:46:23;10.85;;;3.95;;
22334;SDS011;11335;43.848;25.958;2023-05-10T08:49:08;6.30;;;3.42;;
22334;SDS011;11335;43.848;25.958;2023-05-10T08:52:57;8.95;;;3.50;;
22334;SDS011;11335;43.848;25.958;2023-05-10T08:56:43;7.28;;;3.22;;
22334;SDS011;11335;43.848;25.958;2023-05-10T08:59:46;9.00;;;2.80;;
22334;SDS011;11335;43.848;25.958;2023-05-10T09:02:32;14.23;;;3.65;;
22334;SDS011;11335;43.848;25.958;2023-05-10T09:05:18;7.82;;;2.95;;
22334;SDS011;11335;43.848;25.958;2023-05-10T09:08:05;11.02;;;3.20;;
22334;SDS011;11335;43.848;25.958;2023-05-10T09:10:51;8.52;;;3.13;;
22334;SDS011;11335;43.848;25.958;2023-05-10T09:13:40;9.65;;;3.13;;
22334;SDS011;11335;43.848;25.958;2023-05-10T09:16:27;6.32;;;2.97;;
22334;SDS011;11335;43.848;25.958;2023-05-10T09:19:12;8.27;;;3.00;;
22334;SDS011;11335;43.848;25.958;2023-05-10T09:22:01;7.30;;;2.95;;
22334;SDS011;11335;43.848;25.958;2023-05-10T09:28:09;9.00;;;2.88;;
22334;SDS011;11335;43.848;25.958;2023-05-10T09:30:56;7.38;;;3.22;;
22334;SDS011;11335;43.848;25.958;2023-05-10T09:33:45;7.18;;;3.22;;
22334;SDS011;11335;43.848;25.958;2023-05-10T09:36:32;10.70;;;3.20;;
22334;SDS011;11335;43.848;25.958;2023-05-10T09:39:18;7.18;;;3.17;;
22334;SDS011;11335;43.848;25.958;2023-05-10T09:42:05;7.25;;;3.25;;
22334;SDS011;11335;43.848;25.958;2023-05-10T09:44:52;4.55;;;2.90;;
22334;SDS011;11335;43.848;25.958;2023-05-10T09:47:38;5.95;;;3.40;;
22334;SDS011;11335;43.848;25.958;2023-05-10T09:50:24;3.90;;;3.00;;
22334;SDS011;11335;43.848;25.958;2023-05-10T09:53:10;6.85;;;3.03;;
22334;SDS011;11335;43.848;25.958;2023-05-10T09:56:00;12.85;;;3.17;;
22334;SDS011;11335;43.848;25.958;2023-05-10T09:58:46;7.30;;;3.20;;
22334;SDS011;11335;43.848;25.958;2023-05-10T10:01:51;8.13;;;3.42;;
22334;SDS011;11335;43.848;25.958;2023-05-10T10:04:43;8.60;;;3.30;;
22334;SDS011;11335;43.848;25.958;2023-05-10T10:07:29;5.75;;;3.33;;
22334;SDS011;11335;43.848;25.958;2023-05-10T10:10:15;4.90;;;3.15;;
22334;SDS011;11335;43.848;25.958;2023-05-10T10:13:01;9.35;;;3.28;;
22334;SDS011;11335;43.848;25.958;2023-05-10T10:15:47;6.47;;;3.45;;
22334;SDS011;11335;43.848;25.958;2023-05-10T10:18:36;7.80;;;3.10;;
22334;SDS011;11335;43.848;25.958;2023-05-10T10:21:25;7.13;;;3.10;;
22334;SDS011;11335;43.848;25.958;2023-05-10T10:24:11;4.97;;;3.25;;
22334;SDS011;11335;43.848;25.958;2023-05-10T10:26:58;6.10;;;3.00;;
22334;SDS011;11335;43.848;25.958;2023-05-10T10:30:02;20.02;;;3.85;;
22334;SDS011;11335;43.848;25.958;2023-05-10T10:35:48;7.90;;;3.70;;
22334;SDS011;11335;43.848;25.958;2023-05-10T10:38:36;7.20;;;3.67;;
22334;SDS011;11335;43.848;25.958;2023-05-10T10:41:55;5.10;;;3.17;;
22334;SDS011;11335;43.848;25.958;2023-05-10T10:44:42;6.25;;;2.58;;
22334;SDS011;11335;43.848;25.958;2023-05-10T10:47:29;6.72;;;2.60;;
22334;SDS011;11335;43.848;25.958;2023-05-10T10:50:18;10.13;;;3.47;;
22334;SDS011;11335;43.848;25.958;2023-05-10T10:53:10;8.45;;;3.08;;
22334;SDS011;11335;43.848;25.958;2023-05-10T10:56:14;6.53;;;2.75;;
22334;SDS011;11335;43.848;25.958;2023-05-10T10:59:07;4.22;;;2.55;;
22334;SDS011;11335;43.848;25.958;2023-05-10T11:01:59;12.00;;;3.13;;
22334;SDS011;11335;43.848;25.958;2023-05-10T11:04:55;6.40;;;2.70;;
22334;SDS011;11335;43.848;25.958;2023-05-10T11:07:56;8.45;;;2.97;;
22334;SDS011;11335;43.848;25.958;2023-05-10T11:11:05;5.50;;;2.80;;
22334;SDS011;11335;43.848;25.958;2023-05-10T11:14:02;8.13;;;3.03;;
22334;SDS011;11335;43.848;25.958;2023-05-10T11:16:58;4.72;;;2.90;;
22334;SDS011;11335;43.848;25.958;2023-05-10T11:20:01;6.25;;;2.85;;
22334;SDS011;11335;43.848;25.958;2023-05-10T11:22:54;6.15;;;3.00;;
22334;SDS011;11335;43.848;25.958;2023-05-10T11:25:54;9.23;;;3.08;;
22334;SDS011;11335;43.848;25.958;2023-05-10T11:28:47;2.92;;;2.63;;
22334;SDS011;11335;43.848;25.958;2023-05-10T11:31:33;4.60;;;2.53;;
22334;SDS011;11335;43.848;25.958;2023-05-10T11:34:38;7.22;;;2.95;;
22334;SDS011;11335;43.848;25.958;2023-05-10T11:37:24;5.72;;;3.40;;
22334;SDS011;11335;43.848;25.958;2023-05-10T11:40:13;9.00;;;2.65;;
22334;SDS011;11335;43.848;25.958;2023-05-10T11:42:59;11.13;;;2.58;;
22334;SDS011;11335;43.848;25.958;2023-05-10T11:45:45;3.58;;;2.33;;
22334;SDS011;11335;43.848;25.958;2023-05-10T11:48:31;3.88;;;2.20;;
22334;SDS011;11335;43.848;25.958;2023-05-10T11:51:21;7.95;;;2.80;;
22334;SDS011;11335;43.848;25.958;2023-05-10T11:54:09;3.40;;;2.40;;
22334;SDS011;11335;43.848;25.958;2023-05-10T11:56:55;5.28;;;2.30;;
22334;SDS011;11335;43.848;25.958;2023-05-10T11:59:41;5.85;;;2.83;;
22334;SDS011;11335;43.848;25.958;2023-05-10T12:02:28;6.25;;;2.50;;
22334;SDS011;11335;43.848;25.958;2023-05-10T12:05:14;6.97;;;3.17;;
22334;SDS011;11335;43.848;25.958;2023-05-10T12:08:15;5.60;;;3.03;;
22334;SDS011;11335;43.848;25.958;2023-05-10T12:11:09;4.53;;;2.60;;
22334;SDS011;11335;43.848;25.958;2023-05-10T12:13:57;3.22;;;2.33;;
22334;SDS011;11335;43.848;25.958;2023-05-10T12:16:49;5.20;;;2.92;;
22334;SDS011;11335;43.848;25.958;2023-05-10T12:19:45;4.65;;;2.42;;
22334;SDS011;11335;43.848;25.958;2023-05-10T12:22:33;2.88;;;2.60;;
22334;SDS011;11335;43.848;25.958;2023-05-10T12:25:20;7.05;;;2.65;;
22334;SDS011;11335;43.848;25.958;2023-05-10T12:28:08;6.90;;;2.47;;
22334;SDS011;11335;43.848;25.958;2023-05-10T12:31:13;11.15;;;2.80;;
22334;SDS011;11335;43.848;25.958;2023-05-10T12:34:01;5.60;;;2.50;;
22334;SDS011;11335;43.848;25.958;2023-05-10T12:36:49;7.43;;;2.33;;
22334;SDS011;11335;43.848;25.958;2023-05-10T12:39:45;4.35;;;2.25;;
22334;SDS011;11335;43.848;25.958;2023-05-10T12:42:31;4.78;;;3.25;;
22334;SDS011;11335;43.848;25.958;2023-05-10T12:48:37;5.60;;;2.53;;
22334;SDS011;11335;43.848;25.958;2023-05-10T12:51:24;3.17;;;2.30;;
22334;SDS011;11335;43.848;25.958;2023-05-10T12:54:09;8.15;;;2.88;;
22334;SDS011;11335;43.848;25.958;2023-05-10T12:56:58;7.55;;;2.58;;
22334;SDS011;11335;43.848;25.958;2023-05-10T12:59:44;6.53;;;2.67;;
22334;SDS011;11335;43.848;25.958;2023-05-10T13:02:30;5.72;;;2.58;;
22334;SDS011;11335;43.848;25.958;2023-05-10T13:05:16;9.32;;;2.22;;
22334;SDS011;11335;43.848;25.958;2023-05-10T13:08:05;5.72;;;2.40;;
22334;SDS011;11335;43.848;25.958;2023-05-10T13:10:53;4.35;;;2.53;;
22334;SDS011;11335;43.848;25.958;2023-05-10T13:13:42;5.72;;;2.40;;
22334;SDS011;11335;43.848;25.958;2023-05-10T13:16:30;6.38;;;2.75;;
22334;SDS011;11335;43.848;25.958;2023-05-10T13:19:16;3.55;;;2.55;;
22334;SDS011;11335;43.848;25.958;2023-05-10T13:22:02;7.32;;;2.65;;
22334;SDS011;11335;43.848;25.958;2023-05-10T13:24:56;13.13;;;2.70;;
22334;SDS011;11335;43.848;25.958;2023-05-10T13:27:42;3.42;;;2.80;;
22334;SDS011;11335;43.848;25.958;2023-05-10T13:30:28;5.15;;;2.70;;
22334;SDS011;11335;43.848;25.958;2023-05-10T13:33:14;6.07;;;2.70;;
22334;SDS011;11335;43.848;25.958;2023-05-10T13:36:00;13.90;;;2.80;;
22334;SDS011;11335;43.848;25.958;2023-05-10T13:38:45;9.45;;;2.80;;
22334;SDS011;11335;43.848;25.958;2023-05-10T13:41:31;3.70;;;2.80;;
22334;SDS011;11335;43.848;25.958;2023-05-10T13:44:17;9.57;;;3.00;;
22334;SDS011;11335;43.848;25.958;2023-05-10T13:47:03;4.72;;;2.83;;
22334;SDS011;11335;43.848;25.958;2023-05-10T13:49:49;8.63;;;4.28;;
22334;SDS011;11335;43.848;25.958;2023-05-10T13:52:40;7.63;;;2.85;;
22334;SDS011;11335;43.848;25.958;2023-05-10T13:55:27;6.72;;;2.50;;
22334;SDS011;11335;43.848;25.958;2023-05-10T13:58:12;9.30;;;2.60;;
22334;SDS011;11335;43.848;25.958;2023-05-10T14:01:01;5.20;;;2.58;;
22334;SDS011;11335;43.848;25.958;2023-05-10T14:03:47;3.42;;;2.75;;
22334;SDS011;11335;43.848;25.958;2023-05-10T14:06:33;8.57;;;2.88;;
22334;SDS011;11335;43.848;25.958;2023-05-10T14:09:19;6.32;;;2.85;;
22334;SDS011;11335;43.848;25.958;2023-05-10T14:12:05;13.35;;;3.28;;
22334;SDS011;11335;43.848;25.958;2023-05-10T14:14:54;5.50;;;2.58;;
22334;SDS011;11335;43.848;25.958;2023-05-10T14:17:40;6.10;;;3.10;;
22334;SDS011;11335;43.848;25.958;2023-05-10T14:20:26;4.80;;;2.63;;
22334;SDS011;11335;43.848;25.958;2023-05-10T14:23:12;5.65;;;2.90;;
22334;SDS011;11335;43.848;25.958;2023-05-10T14:26:00;5.25;;;2.60;;
22334;SDS011;11335;43.848;25.958;2023-05-10T14:28:47;6.28;;;2.80;;
22334;SDS011;11335;43.848;25.958;2023-05-10T14:31:33;11.75;;;3.47;;
22334;SDS011;11335;43.848;25.958;2023-05-10T14:34:19;5.38;;;2.67;;
22334;SDS011;11335;43.848;25.958;2023-05-10T14:37:05;12.45;;;3.17;;
22334;SDS011;11335;43.848;25.958;2023-05-10T14:39:51;4.03;;;2.50;;
22334;SDS011;11335;43.848;25.958;2023-05-10T14:42:40;11.75;;;3.08;;
22334;SDS011;11335;43.848;25.958;2023-05-10T14:45:27;8.10;;;2.70;;
22334;SDS011;11335;43.848;25.958;2023-05-10T14:48:13;5.25;;;2.60;;
22334;SDS011;11335;43.848;25.958;2023-05-10T14:51:02;3.83;;;2.63;;
22334;SDS011;11335;43.848;25.958;2023-05-10T14:53:49;8.57;;;2.92;;
22334;SDS011;11335;43.848;25.958;2023-05-10T14:56:37;8.07;;;2.83;;
22334;SDS011;11335;43.848;25.958;2023-05-10T14:59:23;3.90;;;2.30;;
22334;SDS011;11335;43.848;25.958;2023-05-10T15:02:09;8.10;;;2.90;;
22334;SDS011;11335;43.848;25.958;2023-05-10T15:04:55;6.20;;;3.30;;
22334;SDS011;11335;43.848;25.958;2023-05-10T15:07:42;7.07;;;2.50;;
22334;SDS011;11335;43.848;25.958;2023-05-10T15:10:29;7.28;;;2.90;;
22334;SDS011;11335;43.848;25.958;2023-05-10T15:13:14;7.25;;;3.10;;
22334;SDS011;11335;43.848;25.958;2023-05-10T15:16:00;10.48;;;3.17;;
22334;SDS011;11335;43.848;25.958;2023-05-10T15:18:46;7.88;;;2.80;;
22334;SDS011;11335;43.848;25.958;2023-05-10T15:21:32;8.10;;;2.88;;
22334;SDS011;11335;43.848;25.958;2023-05-10T15:24:24;8.55;;;2.80;;
22334;SDS011;11335;43.848;25.958;2023-05-10T15:27:09;8.90;;;3.13;;
22334;SDS011;11335;43.848;25.958;2023-05-10T15:29:55;7.82;;;3.17;;
22334;SDS011;11335;43.848;25.958;2023-05-10T15:32:41;4.63;;;2.70;;
22334;SDS011;11335;43.848;25.958;2023-05-10T15:35:28;8.13;;;3.15;;
22334;SDS011;11335;43.848;25.958;2023-05-10T15:38:14;11.07;;;3.10;;
22334;SDS011;11335;43.848;25.958;2023-05-10T15:41:00;6.85;;;3.00;;
22334;SDS011;11335;43.848;25.958;2023-05-10T15:43:46;13.57;;;2.78;;
22334;SDS011;11335;43.848;25.958;2023-05-10T15:46:32;9.75;;;3.45;;
22334;SDS011;11335;43.848;25.958;2023-05-10T15:49:20;7.40;;;3.50;;
22334;SDS011;11335;43.848;25.958;2023-05-10T15:52:08;9.38;;;2.90;;
22334;SDS011;11335;43.848;25.958;2023-05-10T15:54:54;6.68;;;3.10;;
22334;SDS011;11335;43.848;25.958;2023-05-10T15:57:40;6.15;;;3.13;;
22334;SDS011;11335;43.848;25.958;2023-05-10T16:00:29;6.90;;;3.42;;
22334;SDS011;11335;43.848;25.958;2023-05-10T16:03:15;4.07;;;3.33;;
22334;SDS011;11335;43.848;25.958;2023-05-10T16:06:01;9.23;;;3.90;;
22334;SDS011;11335;43.848;25.958;2023-05-10T16:08:50;6.25;;;3.75;;
22334;SDS011;11335;43.848;25.958;2023-05-10T16:11:36;7.10;;;3.70;;
22334;SDS011;11335;43.848;25.958;2023-05-10T16:14:22;4.60;;;4.20;;
22334;SDS011;11335;43.848;25.958;2023-05-10T16:17:08;9.77;;;4.32;;
22334;SDS011;11335;43.848;25.958;2023-05-10T16:19:54;6.22;;;4.80;;
22334;SDS011;11335;43.848;25.958;2023-05-10T16:22:40;11.65;;;4.85;;
22334;SDS011;11335;43.848;25.958;2023-05-10T16:25:28;6.63;;;5.15;;
22334;SDS011;11335;43.848;25.958;2023-05-10T16:28:14;11.68;;;4.63;;
22334;SDS011;11335;43.848;25.958;2023-05-10T16:31:02;12.43;;;5.85;;
22334;SDS011;11335;43.848;25.958;2023-05-10T16:33:48;9.52;;;4.95;;
22334;SDS011;11335;43.848;25.958;2023-05-10T16:36:34;12.60;;;4.53;;
22334;SDS011;11335;43.848;25.958;2023-05-10T16:39:20;6.95;;;4.30;;
22334;SDS011;11335;43.848;25.958;2023-05-10T16:42:06;8.43;;;4.72;;